createdAt,value
2022-12-31T00:00:01.440Z,99.99
2022-12-31T00:01:01.431Z,99.99
2022-12-31T00:02:01.637Z,99.99
2022-12-31T00:03:01.569Z,99.99
2022-12-31T00:04:01.389Z,99.99
2022-12-31T00:05:01.412Z,99.99
2022-12-31T00:06:01.375Z,99.99
2022-12-31T00:07:01.366Z,99.99
2022-12-31T00:08:01.354Z,99.99
2022-12-31T00:09:01.371Z,99.99
2022-12-31T00:10:01.350Z,99.99
2022-12-31T00:11:01.311Z,99.99
2022-12-31T00:12:01.302Z,99.99
2022-12-31T00:13:01.303Z,99.99
2022-12-31T00:14:01.431Z,99.99
2022-12-31T00:15:01.273Z,99.99
2022-12-31T00:16:04.312Z,99.99
2022-12-31T00:17:02.283Z,99.99
2022-12-31T00:18:01.261Z,99.99
2022-12-31T00:19:01.279Z,99.99
2022-12-31T00:20:01.218Z,99.99
2022-12-31T00:21:01.223Z,99.99
2022-12-31T00:22:01.199Z,99.99
2022-12-31T00:23:01.189Z,99.99
2022-12-31T00:24:01.174Z,99.99
2022-12-31T00:25:01.160Z,99.99
2022-12-31T00:26:01.152Z,99.99
2022-12-31T00:27:01.152Z,99.99
2022-12-31T00:28:01.162Z,99.99
2022-12-31T00:29:01.119Z,99.99
2022-12-31T00:30:04.810Z,99.99
2022-12-31T00:31:01.115Z,99.99
2022-12-31T00:32:01.075Z,99.99
2022-12-31T00:33:01.082Z,99.99
2022-12-31T00:34:01.049Z,99.99
2022-12-31T00:35:01.061Z,99.99
2022-12-31T00:36:01.031Z,99.99
2022-12-31T00:37:01.026Z,99.99
2022-12-31T00:38:01.039Z,99.99
2022-12-31T00:39:01.016Z,99.99
2022-12-31T00:40:01.050Z,99.99
2022-12-31T00:41:00.997Z,99.99
2022-12-31T00:42:01.093Z,99.99
2022-12-31T00:43:01.408Z,99.99
2022-12-31T00:44:00.991Z,99.99
2022-12-31T00:45:00.929Z,99.99
2022-12-31T00:46:00.940Z,99.99
2022-12-31T00:47:00.919Z,99.99
2022-12-31T00:48:00.891Z,99.99
2022-12-31T00:49:00.893Z,99.99
2022-12-31T00:50:00.915Z,99.99
2022-12-31T00:51:01.122Z,99.99
2022-12-31T00:52:00.853Z,99.99
2022-12-31T00:53:00.845Z,99.99
2022-12-31T00:54:00.840Z,99.99
2022-12-31T00:55:00.827Z,99.99
2022-12-31T00:56:00.835Z,99.99
2022-12-31T00:57:00.799Z,99.99
2022-12-31T00:58:00.784Z,99.99
2022-12-31T00:59:00.822Z,99.99
2022-12-31T01:00:00.787Z,99.99
2022-12-31T01:01:00.813Z,99.58
2022-12-31T01:02:00.867Z,99.43
2022-12-31T01:03:00.858Z,99.99
2022-12-31T01:04:00.719Z,99.99
2022-12-31T01:05:00.716Z,99.99
2022-12-31T01:06:00.703Z,99.99
2022-12-31T01:07:00.732Z,99.99
2022-12-31T01:08:00.698Z,99.99
2022-12-31T01:09:00.660Z,99.28
2022-12-31T01:10:00.664Z,99.99
2022-12-31T01:11:00.642Z,98.27
2022-12-31T01:12:00.636Z,99.08
2022-12-31T01:13:00.616Z,99.79
2022-12-31T01:14:00.630Z,99.08
2022-12-31T01:15:00.701Z,98.97
2022-12-31T01:16:00.647Z,98.97
2022-12-31T01:17:00.574Z,99.89
2022-12-31T01:18:00.611Z,99.69
2022-12-31T01:19:00.883Z,99.58
2022-12-31T01:20:00.554Z,99.79
2022-12-31T01:21:01.473Z,99.84
2022-12-31T01:22:00.529Z,99.99
2022-12-31T01:23:00.512Z,99.99
2022-12-31T01:24:00.534Z,99.99
2022-12-31T01:25:00.760Z,99.79
2022-12-31T01:26:00.482Z,99.58
2022-12-31T01:27:00.507Z,98.88
2022-12-31T01:28:00.459Z,98.88
2022-12-31T01:29:00.434Z,99.28
2022-12-31T01:30:00.444Z,99.49
2022-12-31T01:31:00.446Z,99.99
2022-12-31T01:32:00.410Z,99.99
2022-12-31T01:33:00.402Z,99.99
2022-12-31T01:34:00.406Z,99.99
2022-12-31T01:35:00.368Z,99.89
2022-12-31T01:36:00.411Z,99.99
2022-12-31T01:37:00.347Z,99.99
2022-12-31T01:38:00.344Z,99.99
2022-12-31T01:39:00.329Z,99.08
2022-12-31T01:40:00.311Z,99.99
2022-12-31T01:41:00.328Z,99.18
2022-12-31T01:42:00.318Z,98.37
2022-12-31T01:43:00.275Z,99.08
2022-12-31T01:44:00.277Z,98.77
2022-12-31T01:45:00.278Z,99.69
2022-12-31T01:46:00.299Z,98.88
2022-12-31T01:47:00.234Z,98.83
2022-12-31T01:48:00.338Z,98.07
2022-12-31T01:49:00.220Z,98.43
2022-12-31T01:50:00.216Z,97.51
2022-12-31T01:51:00.184Z,97.61
2022-12-31T01:52:00.185Z,98.37
2022-12-31T01:53:00.172Z,98.68
2022-12-31T01:54:00.177Z,98.47
2022-12-31T01:55:00.177Z,98.77
2022-12-31T01:56:00.160Z,98.68
2022-12-31T01:57:00.134Z,98.57
2022-12-31T01:58:00.117Z,98.43
2022-12-31T01:59:00.100Z,97.96
2022-12-31T02:00:00.141Z,99.18
2022-12-31T02:01:00.145Z,98.52
2022-12-31T02:02:00.151Z,97.41
2022-12-31T02:03:00.093Z,97.81
2022-12-31T02:04:00.048Z,98.22
2022-12-31T02:05:00.044Z,97.77
2022-12-31T02:06:00.052Z,96.90
2022-12-31T02:07:00.026Z,97.11
2022-12-31T02:08:00.003Z,97.71
2022-12-31T02:08:59.989Z,96.55
2022-12-31T02:09:59.989Z,97.31
2022-12-31T02:10:59.967Z,98.43
2022-12-31T02:11:59.983Z,98.12
2022-12-31T02:12:59.989Z,97.71
2022-12-31T02:13:59.963Z,98.12
2022-12-31T02:14:59.915Z,97.61
2022-12-31T02:15:59.934Z,97.47
2022-12-31T02:16:59.926Z,97.81
2022-12-31T02:17:59.885Z,97.47
2022-12-31T02:18:59.892Z,97.41
2022-12-31T02:19:59.930Z,96.96
2022-12-31T02:20:59.851Z,98.43
2022-12-31T02:21:59.848Z,98.52
2022-12-31T02:22:59.852Z,97.77
2022-12-31T02:23:59.825Z,95.84
2022-12-31T02:24:59.825Z,96.04
2022-12-31T02:25:59.798Z,96.15
2022-12-31T02:26:59.791Z,95.13
2022-12-31T02:27:59.775Z,95.43
2022-12-31T02:28:59.793Z,95.74
2022-12-31T02:29:59.759Z,95.94
2022-12-31T02:30:59.761Z,95.43
2022-12-31T02:31:59.742Z,94.27
2022-12-31T02:33:00.823Z,92.96
2022-12-31T02:33:59.714Z,92.65
2022-12-31T02:34:59.715Z,93.21
2022-12-31T02:35:59.696Z,94.58
2022-12-31T02:36:59.676Z,93.91
2022-12-31T02:37:59.667Z,93.51
2022-12-31T02:38:59.648Z,94.38
2022-12-31T02:39:59.691Z,93.12
2022-12-31T02:40:59.668Z,92.25
2022-12-31T02:41:59.616Z,92.45
2022-12-31T02:42:59.612Z,93.26
2022-12-31T02:43:59.598Z,93.46
2022-12-31T02:44:59.605Z,92.45
2022-12-31T02:45:59.598Z,93.06
2022-12-31T02:46:59.567Z,92.45
2022-12-31T02:47:59.555Z,92.45
2022-12-31T02:48:59.556Z,91.54
2022-12-31T02:49:59.528Z,91.64
2022-12-31T02:51:00.366Z,91.50
2022-12-31T02:51:59.508Z,91.13
2022-12-31T02:52:59.502Z,91.19
2022-12-31T02:53:59.489Z,90.93
2022-12-31T02:54:59.472Z,91.74
2022-12-31T02:55:59.472Z,92.55
2022-12-31T02:56:59.497Z,92.00
2022-12-31T02:57:59.436Z,90.99
2022-12-31T02:58:59.426Z,91.64
2022-12-31T02:59:59.423Z,91.85
2022-12-31T03:00:59.559Z,91.70
2022-12-31T03:01:59.456Z,91.80
2022-12-31T03:02:59.409Z,91.19
2022-12-31T03:03:59.381Z,90.69
2022-12-31T03:04:59.363Z,90.38
2022-12-31T03:05:59.366Z,90.79
2022-12-31T03:06:59.399Z,90.99
2022-12-31T03:07:59.361Z,90.79
2022-12-31T03:08:59.318Z,90.24
2022-12-31T03:09:59.318Z,89.63
2022-12-31T03:10:59.297Z,89.23
2022-12-31T03:11:59.288Z,89.23
2022-12-31T03:12:59.268Z,89.12
2022-12-31T03:13:59.288Z,88.92
2022-12-31T03:14:59.248Z,89.12
2022-12-31T03:15:59.271Z,89.02
2022-12-31T03:16:59.222Z,89.43
2022-12-31T03:17:59.218Z,89.23
2022-12-31T03:18:59.208Z,89.23
2022-12-31T03:19:59.217Z,89.53
2022-12-31T03:20:59.184Z,88.51
2022-12-31T03:21:59.182Z,89.12
2022-12-31T03:22:59.159Z,88.51
2022-12-31T03:23:59.148Z,88.51
2022-12-31T03:24:59.141Z,87.91
2022-12-31T03:25:59.210Z,88.51
2022-12-31T03:26:59.120Z,88.51
2022-12-31T03:27:59.107Z,88.21
2022-12-31T03:28:59.091Z,88.11
2022-12-31T03:29:59.093Z,87.81
2022-12-31T03:30:59.071Z,88.07
2022-12-31T03:31:59.125Z,87.66
2022-12-31T03:32:59.069Z,87.71
2022-12-31T03:33:59.040Z,87.77
2022-12-31T03:34:59.021Z,87.66
2022-12-31T03:35:59.014Z,87.05
2022-12-31T03:36:58.998Z,87.36
2022-12-31T03:37:59.017Z,87.05
2022-12-31T03:38:58.989Z,87.36
2022-12-31T03:39:58.969Z,87.16
2022-12-31T03:40:58.964Z,86.96
2022-12-31T03:41:58.950Z,87.60
2022-12-31T03:42:58.952Z,87.36
2022-12-31T03:43:58.954Z,86.65
2022-12-31T03:44:58.920Z,87.16
2022-12-31T03:45:58.937Z,86.90
2022-12-31T03:46:58.883Z,87.40
2022-12-31T03:47:58.884Z,87.40
2022-12-31T03:48:58.868Z,86.96
2022-12-31T03:49:58.906Z,87.40
2022-12-31T03:50:58.851Z,87.30
2022-12-31T03:51:58.840Z,87.40
2022-12-31T03:52:58.825Z,87.81
2022-12-31T03:53:58.826Z,86.85
2022-12-31T03:54:58.799Z,87.71
2022-12-31T03:55:58.846Z,87.51
2022-12-31T03:57:00.191Z,87.71
2022-12-31T03:57:58.770Z,87.26
2022-12-31T03:58:58.753Z,87.40
2022-12-31T03:59:58.766Z,88.11
2022-12-31T04:00:58.854Z,87.36
2022-12-31T04:01:58.837Z,87.71
2022-12-31T04:02:58.778Z,87.56
2022-12-31T04:03:58.701Z,87.05
2022-12-31T04:04:58.697Z,86.45
2022-12-31T04:05:58.672Z,86.10
2022-12-31T04:06:58.674Z,85.90
2022-12-31T04:07:58.673Z,85.80
2022-12-31T04:08:58.641Z,86.35
2022-12-31T04:09:58.645Z,86.45
2022-12-31T04:10:58.616Z,86.76
2022-12-31T04:11:58.613Z,86.00
2022-12-31T04:12:58.621Z,86.25
2022-12-31T04:13:58.594Z,86.55
2022-12-31T04:14:58.572Z,87.16
2022-12-31T04:15:58.638Z,88.17
2022-12-31T04:16:58.554Z,88.17
2022-12-31T04:17:58.548Z,88.27
2022-12-31T04:18:58.560Z,88.72
2022-12-31T04:19:58.524Z,88.82
2022-12-31T04:20:58.504Z,89.02
2022-12-31T04:21:58.504Z,89.53
2022-12-31T04:22:58.483Z,89.32
2022-12-31T04:23:58.474Z,89.73
2022-12-31T04:24:58.491Z,89.32
2022-12-31T04:25:58.456Z,89.53
2022-12-31T04:27:03.584Z,90.24
2022-12-31T04:27:59.435Z,90.64
2022-12-31T04:28:58.417Z,89.79
2022-12-31T04:29:58.405Z,89.63
2022-12-31T04:30:58.412Z,89.94
2022-12-31T04:31:58.445Z,89.69
2022-12-31T04:32:58.376Z,89.69
2022-12-31T04:33:58.365Z,89.39
2022-12-31T04:34:58.366Z,89.59
2022-12-31T04:35:58.377Z,88.98
2022-12-31T04:36:58.333Z,88.78
2022-12-31T04:37:58.314Z,89.39
2022-12-31T04:38:58.305Z,89.39
2022-12-31T04:40:05.099Z,88.88
2022-12-31T04:40:59.309Z,88.57
2022-12-31T04:41:58.297Z,88.37
2022-12-31T04:42:58.265Z,88.27
2022-12-31T04:43:58.266Z,88.68
2022-12-31T04:44:58.237Z,88.57
2022-12-31T04:45:58.271Z,88.57
2022-12-31T04:46:58.258Z,88.68
2022-12-31T04:47:58.217Z,88.37
2022-12-31T04:48:58.223Z,88.78
2022-12-31T04:49:58.197Z,88.68
2022-12-31T04:50:58.176Z,88.07
2022-12-31T04:51:58.165Z,88.13
2022-12-31T04:52:58.176Z,87.93
2022-12-31T04:53:58.218Z,87.32
2022-12-31T04:54:58.128Z,88.27
2022-12-31T04:55:58.120Z,87.97
2022-12-31T04:56:58.113Z,87.73
2022-12-31T04:57:58.095Z,88.48
2022-12-31T04:58:58.110Z,89.73
2022-12-31T04:59:58.077Z,89.08
2022-12-31T05:00:58.189Z,87.93
2022-12-31T05:01:58.310Z,88.27
2022-12-31T05:02:58.071Z,89.18
2022-12-31T05:03:58.056Z,88.48
2022-12-31T05:04:58.028Z,88.78
2022-12-31T05:05:58.023Z,89.39
2022-12-31T05:06:57.986Z,88.48
2022-12-31T05:07:57.985Z,88.78
2022-12-31T05:08:57.972Z,87.73
2022-12-31T05:09:57.988Z,88.07
2022-12-31T05:10:57.946Z,88.37
2022-12-31T05:11:57.947Z,88.98
2022-12-31T05:12:57.916Z,88.27
2022-12-31T05:13:57.924Z,88.57
2022-12-31T05:14:57.909Z,89.39
2022-12-31T05:15:57.925Z,88.88
2022-12-31T05:16:57.920Z,89.28
2022-12-31T05:17:57.869Z,88.57
2022-12-31T05:18:57.887Z,88.27
2022-12-31T05:19:57.847Z,89.18
2022-12-31T05:20:57.839Z,88.98
2022-12-31T05:21:57.858Z,88.02
2022-12-31T05:22:57.819Z,87.82
2022-12-31T05:23:57.797Z,87.52
2022-12-31T05:24:57.806Z,88.27
2022-12-31T05:25:57.778Z,88.48
2022-12-31T05:26:57.767Z,87.32
2022-12-31T05:27:57.787Z,87.97
2022-12-31T05:28:57.750Z,87.22
2022-12-31T05:29:57.731Z,87.62
2022-12-31T05:30:57.753Z,87.36
2022-12-31T05:31:57.716Z,87.97
2022-12-31T05:32:57.698Z,88.07
2022-12-31T05:33:57.707Z,87.42
2022-12-31T05:34:57.706Z,87.77
2022-12-31T05:35:57.668Z,87.52
2022-12-31T05:36:57.659Z,87.87
2022-12-31T05:37:57.638Z,87.22
2022-12-31T05:38:57.639Z,87.12
2022-12-31T05:39:57.658Z,86.82
2022-12-31T05:40:57.617Z,87.12
2022-12-31T05:41:57.606Z,87.12
2022-12-31T05:42:57.592Z,87.42
2022-12-31T05:43:57.591Z,87.82
2022-12-31T05:44:57.573Z,87.22
2022-12-31T05:45:57.642Z,86.91
2022-12-31T05:46:57.539Z,86.61
2022-12-31T05:47:57.529Z,86.41
2022-12-31T05:48:57.523Z,86.41
2022-12-31T05:49:57.508Z,86.51
2022-12-31T05:50:57.521Z,86.41
2022-12-31T05:51:57.494Z,86.51
2022-12-31T05:52:57.494Z,86.71
2022-12-31T05:53:57.470Z,85.86
2022-12-31T05:54:57.447Z,85.86
2022-12-31T05:55:57.445Z,85.46
2022-12-31T05:56:57.452Z,85.36
2022-12-31T05:57:57.418Z,86.41
2022-12-31T05:58:57.421Z,85.86
2022-12-31T05:59:57.392Z,85.86
2022-12-31T06:00:57.437Z,86.31
2022-12-31T06:01:57.374Z,86.16
2022-12-31T06:02:57.470Z,86.00
2022-12-31T06:03:57.392Z,86.10
2022-12-31T06:04:57.348Z,86.16
2022-12-31T06:06:51.795Z,85.46
2022-12-31T06:07:49.163Z,85.46
2022-12-31T06:08:49.130Z,85.76
2022-12-31T06:09:49.123Z,84.91
2022-12-31T06:10:49.103Z,84.61
2022-12-31T06:11:49.120Z,84.51
2022-12-31T06:12:49.073Z,84.51
2022-12-31T06:13:49.096Z,84.41
2022-12-31T06:14:49.052Z,84.17
2022-12-31T06:15:49.161Z,83.46
2022-12-31T06:16:49.044Z,84.00
2022-12-31T06:17:49.024Z,84.51
2022-12-31T06:18:49.015Z,84.81
2022-12-31T06:19:49.023Z,84.51
2022-12-31T06:20:48.984Z,84.75
2022-12-31T06:21:48.984Z,84.41
2022-12-31T06:22:48.963Z,84.81
2022-12-31T06:23:48.964Z,84.51
2022-12-31T06:24:48.971Z,83.90
2022-12-31T06:25:48.946Z,83.36
2022-12-31T06:26:48.929Z,83.46
2022-12-31T06:27:48.921Z,83.80
2022-12-31T06:28:48.902Z,83.56
2022-12-31T06:29:48.897Z,83.36
2022-12-31T06:30:48.957Z,83.26
2022-12-31T06:31:48.864Z,83.80
2022-12-31T06:32:48.857Z,84.00
2022-12-31T06:33:48.863Z,83.46
2022-12-31T06:34:48.849Z,82.85
2022-12-31T06:35:48.825Z,83.15
2022-12-31T06:36:48.832Z,83.15
2022-12-31T06:37:48.804Z,83.15
2022-12-31T06:38:48.787Z,83.60
2022-12-31T06:39:48.775Z,83.46
2022-12-31T06:40:48.762Z,82.85
2022-12-31T06:41:48.762Z,83.80
2022-12-31T06:42:48.767Z,83.76
2022-12-31T06:43:48.736Z,82.95
2022-12-31T06:44:48.721Z,82.65
2022-12-31T06:45:48.705Z,82.14
2022-12-31T06:46:48.728Z,82.55
2022-12-31T06:47:48.706Z,82.95
2022-12-31T06:48:48.673Z,82.95
2022-12-31T06:49:48.665Z,82.65
2022-12-31T06:50:48.646Z,82.65
2022-12-31T06:51:48.638Z,82.24
2022-12-31T06:52:48.626Z,82.14
2022-12-31T06:53:48.637Z,82.85
2022-12-31T06:54:48.622Z,82.89
2022-12-31T06:55:48.597Z,83.29
2022-12-31T06:56:48.576Z,83.05
2022-12-31T06:57:48.571Z,83.36
2022-12-31T06:58:48.559Z,82.95
2022-12-31T06:59:48.567Z,82.45
2022-12-31T07:00:48.527Z,82.75
2022-12-31T07:01:48.624Z,82.55
2022-12-31T07:02:48.579Z,82.55
2022-12-31T07:03:48.502Z,83.09
2022-12-31T07:04:48.514Z,82.85
2022-12-31T07:05:48.477Z,83.05
2022-12-31T07:06:48.458Z,82.75
2022-12-31T07:07:48.465Z,83.26
2022-12-31T07:08:48.447Z,83.26
2022-12-31T07:09:48.460Z,82.65
2022-12-31T07:10:48.452Z,82.35
2022-12-31T07:11:48.441Z,82.55
2022-12-31T07:12:48.401Z,82.45
2022-12-31T07:13:48.397Z,82.35
2022-12-31T07:14:48.385Z,82.55
2022-12-31T07:15:48.404Z,82.65
2022-12-31T07:16:48.373Z,82.65
2022-12-31T07:17:48.339Z,82.65
2022-12-31T07:18:48.347Z,82.75
2022-12-31T07:19:53.873Z,82.55
2022-12-31T07:20:49.299Z,81.90
2022-12-31T07:21:48.287Z,81.94
2022-12-31T07:22:48.346Z,82.14
2022-12-31T07:23:48.278Z,82.14
2022-12-31T07:24:48.340Z,82.45
2022-12-31T07:25:48.326Z,82.55
2022-12-31T07:26:54.292Z,82.24
2022-12-31T07:27:49.248Z,82.24
2022-12-31T07:28:48.212Z,82.14
2022-12-31T07:29:48.198Z,82.04
2022-12-31T07:30:48.189Z,81.50
2022-12-31T07:31:48.176Z,81.64
2022-12-31T07:32:48.158Z,81.74
2022-12-31T07:33:48.205Z,82.04
2022-12-31T07:34:48.138Z,82.24
2022-12-31T07:35:48.141Z,81.90
2022-12-31T07:36:48.109Z,81.50
2022-12-31T07:37:48.099Z,81.60
2022-12-31T07:38:48.089Z,81.40
2022-12-31T07:39:48.105Z,81.30
2022-12-31T07:40:48.075Z,81.30
2022-12-31T07:41:48.063Z,81.40
2022-12-31T07:42:48.041Z,81.70
2022-12-31T07:43:48.045Z,81.84
2022-12-31T07:44:48.049Z,81.74
2022-12-31T07:45:48.009Z,82.14
2022-12-31T07:46:48.066Z,81.94
2022-12-31T07:47:48.008Z,81.90
2022-12-31T07:48:47.990Z,81.80
2022-12-31T07:49:48.101Z,81.80
2022-12-31T07:50:47.970Z,81.70
2022-12-31T07:51:47.976Z,81.50
2022-12-31T07:52:47.929Z,81.10
2022-12-31T07:53:47.933Z,80.90
2022-12-31T07:54:47.948Z,80.90
2022-12-31T07:55:47.893Z,81.40
2022-12-31T07:56:47.902Z,81.40
2022-12-31T07:57:47.874Z,81.40
2022-12-31T07:58:47.865Z,81.10
2022-12-31T07:59:47.854Z,81.20
2022-12-31T08:00:47.892Z,81.30
2022-12-31T08:01:47.985Z,80.99
2022-12-31T08:02:47.954Z,81.70
2022-12-31T08:03:47.805Z,81.60
2022-12-31T08:04:47.798Z,81.10
2022-12-31T08:05:47.771Z,80.99
2022-12-31T08:06:47.777Z,81.10
2022-12-31T08:07:47.760Z,81.10
2022-12-31T08:08:47.765Z,81.16
2022-12-31T08:09:47.733Z,80.99
2022-12-31T08:10:47.733Z,81.20
2022-12-31T08:11:47.711Z,81.20
2022-12-31T08:12:47.702Z,81.60
2022-12-31T08:13:47.702Z,81.40
2022-12-31T08:14:47.689Z,81.50
2022-12-31T08:15:47.667Z,81.10
2022-12-31T08:16:47.698Z,80.90
2022-12-31T08:17:47.659Z,81.30
2022-12-31T08:18:47.633Z,80.85
2022-12-31T08:19:47.642Z,80.85
2022-12-31T08:20:47.615Z,80.79
2022-12-31T08:21:47.602Z,81.16
2022-12-31T08:22:47.596Z,80.45
2022-12-31T08:23:47.573Z,80.15
2022-12-31T08:24:47.562Z,80.49
2022-12-31T08:25:47.563Z,80.65
2022-12-31T08:26:52.825Z,80.55
2022-12-31T08:27:48.532Z,80.76
2022-12-31T08:28:47.515Z,80.35
2022-12-31T08:29:47.505Z,80.45
2022-12-31T08:30:47.494Z,80.25
2022-12-31T08:31:47.533Z,79.94
2022-12-31T08:32:47.463Z,80.15
2022-12-31T08:33:47.453Z,80.65
2022-12-31T08:34:47.443Z,80.65
2022-12-31T08:35:47.433Z,80.99
2022-12-31T08:36:47.424Z,80.79
2022-12-31T08:37:47.440Z,80.15
2022-12-31T08:38:47.402Z,80.65
2022-12-31T08:39:47.385Z,80.25
2022-12-31T08:40:47.375Z,80.15
2022-12-31T08:41:47.366Z,80.15
2022-12-31T08:42:47.355Z,79.74
2022-12-31T08:43:47.391Z,79.54
2022-12-31T08:44:47.323Z,79.64
2022-12-31T08:45:47.351Z,79.54
2022-12-31T08:46:47.304Z,79.94
2022-12-31T08:47:47.299Z,80.49
2022-12-31T08:48:47.283Z,80.25
2022-12-31T08:49:47.286Z,79.74
2022-12-31T08:50:47.291Z,80.05
2022-12-31T08:51:47.244Z,79.34
2022-12-31T08:52:47.242Z,79.74
2022-12-31T08:53:47.225Z,79.64
2022-12-31T08:54:47.248Z,79.24
2022-12-31T08:55:47.204Z,79.14
2022-12-31T08:56:50.430Z,79.14
2022-12-31T08:57:47.185Z,79.34
2022-12-31T08:58:47.167Z,79.54
2022-12-31T08:59:47.168Z,79.34
2022-12-31T09:00:47.207Z,79.34
2022-12-31T09:01:47.215Z,79.48
2022-12-31T09:02:48.328Z,79.44
2022-12-31T09:03:47.208Z,79.34
2022-12-31T09:04:47.112Z,79.64
2022-12-31T09:05:47.099Z,79.44
2022-12-31T09:06:47.100Z,78.94
2022-12-31T09:07:47.074Z,79.24
2022-12-31T09:08:47.055Z,79.54
2022-12-31T09:09:47.049Z,79.14
2022-12-31T09:10:47.037Z,79.04
2022-12-31T09:11:47.044Z,78.50
2022-12-31T09:12:47.006Z,79.04
2022-12-31T09:13:46.997Z,78.74
2022-12-31T09:14:46.994Z,78.39
2022-12-31T09:15:46.979Z,78.50
2022-12-31T09:16:46.996Z,78.59
2022-12-31T09:17:46.964Z,78.30
2022-12-31T09:18:46.947Z,78.30
2022-12-31T09:19:46.927Z,78.19
2022-12-31T09:20:46.918Z,78.50
2022-12-31T09:21:46.914Z,78.09
2022-12-31T09:22:46.917Z,78.09
2022-12-31T09:23:46.889Z,78.30
2022-12-31T09:24:46.877Z,78.33
2022-12-31T09:25:46.862Z,78.63
2022-12-31T09:26:46.862Z,78.39
2022-12-31T09:27:46.841Z,77.99
2022-12-31T09:28:46.848Z,77.69
2022-12-31T09:29:46.821Z,78.19
2022-12-31T09:30:46.812Z,78.09
2022-12-31T09:31:46.847Z,78.30
2022-12-31T09:32:46.787Z,78.19
2022-12-31T09:33:46.768Z,77.69
2022-12-31T09:34:46.781Z,78.09
2022-12-31T09:35:46.758Z,78.03
2022-12-31T09:36:46.746Z,78.53
2022-12-31T09:37:46.727Z,78.74
2022-12-31T09:38:46.720Z,78.74
2022-12-31T09:39:46.766Z,78.63
2022-12-31T09:40:46.689Z,78.19
2022-12-31T09:41:46.703Z,78.09
2022-12-31T09:42:46.669Z,77.45
2022-12-31T09:43:46.660Z,77.59
2022-12-31T09:44:46.651Z,77.89
2022-12-31T09:45:46.731Z,77.45
2022-12-31T09:46:46.651Z,77.25
2022-12-31T09:47:46.615Z,76.95
2022-12-31T09:48:46.613Z,77.19
2022-12-31T09:49:46.608Z,77.49
2022-12-31T09:50:46.598Z,77.49
2022-12-31T09:51:46.587Z,77.15
2022-12-31T09:52:46.559Z,77.69
2022-12-31T09:53:46.541Z,77.69
2022-12-31T09:54:46.551Z,77.89
2022-12-31T09:55:46.555Z,77.59
2022-12-31T09:56:46.540Z,77.08
2022-12-31T09:57:46.501Z,77.49
2022-12-31T09:58:46.509Z,77.39
2022-12-31T09:59:46.475Z,77.35
2022-12-31T10:00:46.474Z,77.39
2022-12-31T10:01:46.545Z,77.35
2022-12-31T10:02:46.616Z,76.75
2022-12-31T10:03:46.445Z,76.34
2022-12-31T10:04:46.441Z,76.75
2022-12-31T10:05:46.430Z,76.75
2022-12-31T10:06:46.407Z,76.71
2022-12-31T10:07:52.377Z,76.10
2022-12-31T10:08:47.401Z,76.10
2022-12-31T10:09:46.363Z,76.10
2022-12-31T10:10:46.351Z,75.70
2022-12-31T10:11:46.343Z,75.90
2022-12-31T10:12:46.342Z,75.67
2022-12-31T10:13:46.364Z,75.36
2022-12-31T10:14:47.617Z,75.36
2022-12-31T10:15:46.314Z,74.76
2022-12-31T10:16:46.357Z,74.82
2022-12-31T10:17:46.292Z,74.32
2022-12-31T10:18:46.276Z,74.58
2022-12-31T10:19:46.257Z,74.49
2022-12-31T10:20:46.275Z,73.78
2022-12-31T10:21:46.274Z,74.02
2022-12-31T10:22:46.233Z,73.78
2022-12-31T10:23:46.207Z,74.42
2022-12-31T10:24:46.215Z,74.52
2022-12-31T10:25:46.490Z,74.42
2022-12-31T10:26:51.328Z,74.08
2022-12-31T10:27:47.154Z,73.78
2022-12-31T10:28:46.154Z,73.38
2022-12-31T10:29:46.154Z,73.38
2022-12-31T10:30:46.149Z,73.08
2022-12-31T10:31:46.137Z,73.58
2022-12-31T10:32:46.133Z,73.82
2022-12-31T10:33:46.146Z,74.02
2022-12-31T10:34:46.085Z,73.68
2022-12-31T10:35:46.066Z,73.08
2022-12-31T10:36:46.070Z,73.28
2022-12-31T10:37:46.066Z,73.18
2022-12-31T10:38:46.044Z,73.32
2022-12-31T10:39:46.142Z,73.82
2022-12-31T10:40:46.026Z,73.68
2022-12-31T10:41:46.004Z,73.78
2022-12-31T10:42:45.998Z,73.38
2022-12-31T10:43:45.997Z,73.72
2022-12-31T10:44:45.967Z,73.48
2022-12-31T10:45:45.992Z,74.02
2022-12-31T10:46:45.960Z,74.52
2022-12-31T10:47:45.936Z,74.35
2022-12-31T10:48:45.987Z,73.82
2022-12-31T10:49:45.922Z,74.12
2022-12-31T10:50:45.905Z,73.72
2022-12-31T10:51:45.887Z,73.98
2022-12-31T10:52:45.893Z,73.38
2022-12-31T10:53:45.866Z,73.82
2022-12-31T10:54:45.866Z,73.72
2022-12-31T10:55:45.836Z,73.92
2022-12-31T10:56:45.830Z,74.55
2022-12-31T10:57:45.819Z,74.22
2022-12-31T10:58:45.813Z,74.32
2022-12-31T10:59:45.831Z,74.02
2022-12-31T11:00:45.778Z,74.35
2022-12-31T11:01:45.836Z,74.35
2022-12-31T11:02:45.836Z,74.02
2022-12-31T11:03:45.804Z,74.22
2022-12-31T11:04:45.745Z,73.61
2022-12-31T11:05:45.730Z,73.92
2022-12-31T11:06:45.708Z,73.68
2022-12-31T11:07:45.699Z,73.82
2022-12-31T11:08:45.701Z,73.92
2022-12-31T11:09:45.675Z,73.78
2022-12-31T11:10:45.680Z,73.48
2022-12-31T11:11:45.646Z,73.21
2022-12-31T11:12:45.648Z,74.02
2022-12-31T11:13:45.641Z,73.32
2022-12-31T11:14:45.638Z,73.58
2022-12-31T11:15:49.946Z,73.28
2022-12-31T11:16:45.627Z,72.97
2022-12-31T11:17:45.607Z,73.32
2022-12-31T11:18:45.600Z,73.18
2022-12-31T11:19:45.571Z,73.18
2022-12-31T11:20:45.559Z,73.18
2022-12-31T11:21:45.563Z,73.18
2022-12-31T11:22:45.541Z,72.77
2022-12-31T11:23:45.520Z,73.18
2022-12-31T11:24:45.697Z,73.08
2022-12-31T11:25:45.592Z,73.08
2022-12-31T11:26:45.495Z,72.88
2022-12-31T11:27:49.266Z,72.97
2022-12-31T11:28:45.521Z,72.64
2022-12-31T11:29:45.451Z,72.47
2022-12-31T11:30:45.728Z,73.08
2022-12-31T11:31:45.443Z,72.77
2022-12-31T11:32:45.451Z,72.57
2022-12-31T11:33:50.118Z,73.18
2022-12-31T11:34:46.405Z,72.67
2022-12-31T11:35:45.387Z,72.37
2022-12-31T11:36:45.399Z,72.67
2022-12-31T11:37:45.388Z,72.77
2022-12-31T11:38:45.408Z,72.67
2022-12-31T11:39:45.344Z,73.11
2022-12-31T11:40:45.337Z,73.28
2022-12-31T11:41:45.350Z,72.77
2022-12-31T11:42:45.385Z,72.34
2022-12-31T11:43:45.343Z,72.37
2022-12-31T11:44:45.292Z,72.97
2022-12-31T11:45:50.403Z,72.81
2022-12-31T11:46:46.311Z,73.11
2022-12-31T11:48:27.868Z,73.01
2022-12-31T11:48:46.276Z,73.21
2022-12-31T11:49:45.233Z,73.08
2022-12-31T11:50:45.262Z,72.77
2022-12-31T11:51:50.155Z,72.81
2022-12-31T11:52:46.213Z,73.21
2022-12-31T11:53:45.184Z,73.32
2022-12-31T11:54:45.193Z,73.52
2022-12-31T11:55:45.173Z,73.21
2022-12-31T11:56:45.185Z,72.67
2022-12-31T11:57:45.144Z,72.57
2022-12-31T11:58:45.135Z,72.47
2022-12-31T11:59:45.143Z,72.88
2022-12-31T12:00:45.147Z,72.17
2022-12-31T12:01:45.099Z,72.67
2022-12-31T12:02:45.167Z,72.77
2022-12-31T12:03:45.104Z,72.57
2022-12-31T12:04:45.063Z,72.57
2022-12-31T12:05:45.075Z,72.57
2022-12-31T12:06:45.062Z,72.67
2022-12-31T12:07:45.026Z,72.88
2022-12-31T12:08:45.024Z,72.71
2022-12-31T12:09:45.086Z,73.08
2022-12-31T12:10:45.037Z,72.47
2022-12-31T12:11:45.018Z,72.67
2022-12-31T12:12:44.995Z,72.44
2022-12-31T12:13:44.981Z,71.94
2022-12-31T12:14:44.974Z,71.60
2022-12-31T12:15:44.945Z,71.43
2022-12-31T12:16:45.127Z,71.43
2022-12-31T12:17:44.925Z,71.63
2022-12-31T12:18:44.923Z,71.40
2022-12-31T12:19:44.905Z,71.43
2022-12-31T12:20:44.891Z,71.23
2022-12-31T12:21:44.906Z,71.13
2022-12-31T12:22:49.405Z,71.73
2022-12-31T12:23:44.936Z,71.09
2022-12-31T12:24:44.868Z,70.89
2022-12-31T12:25:44.867Z,71.03
2022-12-31T12:26:44.818Z,71.20
2022-12-31T12:27:44.838Z,70.89
2022-12-31T12:28:44.801Z,71.20
2022-12-31T12:29:44.796Z,71.09
2022-12-31T12:30:44.778Z,71.00
2022-12-31T12:31:44.798Z,70.83
2022-12-31T12:32:44.755Z,71.33
2022-12-31T12:33:44.792Z,71.43
2022-12-31T12:34:49.445Z,71.43
2022-12-31T12:35:45.753Z,71.23
2022-12-31T12:36:44.717Z,70.89
2022-12-31T12:37:44.716Z,71.53
2022-12-31T12:38:44.691Z,71.43
2022-12-31T12:39:44.734Z,71.23
2022-12-31T12:40:44.658Z,71.03
2022-12-31T12:41:44.658Z,70.83
2022-12-31T12:42:44.638Z,71.03
2022-12-31T12:43:44.705Z,71.53
2022-12-31T12:44:44.619Z,71.23
2022-12-31T12:45:49.184Z,71.13
2022-12-31T12:46:48.166Z,70.50
2022-12-31T12:47:44.600Z,70.83
2022-12-31T12:48:44.574Z,70.89
2022-12-31T12:49:44.558Z,70.50
2022-12-31T12:50:44.573Z,70.19
2022-12-31T12:51:44.540Z,69.65
2022-12-31T12:52:44.532Z,69.65